Holeby, Denmark
Current Conditions -  °F | °C
As of 4:20 PM on Wednesday 28 Jan 2015 (Local Time) from EDHK Reporting Station
Rain Showers Rain Showers  
Wind Chill: 30°   Ceiling: 800
Heat Index: 39°   Visibility: 4mi
Dew Point: 37°   Wind: 18mph
Humidity: 93%   Direction: 200°SSW
Pressure: 29.23"   Gusts: 30mph
Location:  54.71°N, 11.46°E
Report Text: EDHK 281520Z 20016G26KT 7000 -SHRA BKN008 OVC015 04/03 Q0990
Loading
Personal Weather Stations






























Interactive Weather Map New forecast layout! Learn more

10-Day Weather Forecast

Advertisements
Track Severe Weather on mobile